Terminal Aerodrome Forecast
Issued by NWS

Home | Current Version | Previous Version | Text Only | Print | Product List | Glossary On
Versions: 1 2 3 4 5 6 7 8 9 10 11 12 13 14 15 16 17 18 19 20 21 22 23 24 25 26
000
FTUS46 KMTR 242327
TAFSTS
TAF
KSTS 242327Z 2500/2524 31004KT P6SM FEW025 BKN150
     FM250300 VRB02KT P6SM BKN150
     FM250600 00000KT 1/4SM FG OVC002
     FM251700 VRB03KT 3SM BR BKN005
     FM251800 10003KT P6SM FEW005 BKN200
     FM252100 17005KT P6SM OVC150=

USA.gov is the U.S. government's official web portal to all federal, state and local government web resources and services.